Time;durP1;ratioP1;P1;durP2;ratioP2;P2;SDS_P1;SDS_P2;PMS_P1;PMS_P2;Temp;Humidity;BMP_temperature;BMP_pressure;BME280_temperature;BME280_humidity;BME280_pressure;Samples;Min_cycle;Max_cycle;Signal;HPM_P1;HPM_P2
2021/06/17 00:00:28;;;;;;;16.83;5.30;;;20.30;90.00;;;;;;6198167;28;20074;-77
2021/06/17 00:03:31;;;;;;;6.13;5.35;;;20.20;90.00;;;;;;6197946;28;20185;-76
2021/06/17 00:06:33;;;;;;;8.68;4.47;;;20.20;90.00;;;;;;6198491;28;20397;-76
2021/06/17 00:09:36;;;;;;;10.10;6.13;;;20.20;90.10;;;;;;6189088;28;20050;-77
2021/06/17 00:12:38;;;;;;;5.80;4.82;;;20.20;90.10;;;;;;6195823;28;20046;-77
2021/06/17 00:15:41;;;;;;;7.28;6.18;;;20.10;89.80;;;;;;6198339;28;20124;-77
2021/06/17 00:18:43;;;;;;;5.63;5.07;;;20.10;89.50;;;;;;6197666;28;20508;-76
2021/06/17 00:21:44;;;;;;;6.13;5.18;;;20.10;89.90;;;;;;6197698;28;20631;-77
2021/06/17 00:24:47;;;;;;;7.20;5.70;;;20.00;89.80;;;;;;6198413;28;20192;-76
2021/06/17 00:27:50;;;;;;;5.90;5.30;;;20.00;89.90;;;;;;6197918;28;20050;-77
2021/06/17 00:30:52;;;;;;;6.97;5.25;;;19.90;90.00;;;;;;6197558;28;20077;-77
2021/06/17 00:33:54;;;;;;;7.30;5.72;;;19.90;89.70;;;;;;6198132;28;20077;-77
2021/06/17 00:36:56;;;;;;;5.75;4.68;;;19.90;90.00;;;;;;6192522;28;20489;-77
2021/06/17 00:39:59;;;;;;;7.65;5.47;;;19.90;90.20;;;;;;6197253;28;20575;-77
2021/06/17 00:43:01;;;;;;;4.28;3.90;;;19.90;90.30;;;;;;6197185;28;20506;-76
2021/06/17 00:46:03;;;;;;;7.90;5.45;;;19.80;90.30;;;;;;6197661;28;20078;-77
2021/06/17 00:49:06;;;;;;;5.18;4.70;;;19.80;90.30;;;;;;6197493;28;20132;-76
2021/06/17 00:52:08;;;;;;;7.47;5.65;;;19.80;90.30;;;;;;6197616;28;20070;-76
2021/06/17 00:55:12;;;;;;;9.48;5.22;;;19.70;90.40;;;;;;6197374;28;20050;-77
2021/06/17 00:58:15;;;;;;;7.80;4.90;;;19.70;90.40;;;;;;6197429;28;20612;-77
2021/06/17 01:01:16;;;;;;;5.78;5.28;;;19.60;90.50;;;;;;6197599;28;20193;-76
2021/06/17 01:04:18;;;;;;;6.53;5.65;;;19.60;90.50;;;;;;6197474;28;20612;-76
2021/06/17 01:07:29;;;;;;;6.38;5.40;;;19.60;90.70;;;;;;6200306;28;20179;-76
2021/06/17 01:10:41;;;;;;;8.00;5.60;;;19.60;90.80;;;;;;6195443;28;20047;-77
2021/06/17 01:13:51;;;;;;;7.35;5.65;;;19.50;90.80;;;;;;6200416;28;20054;-76
2021/06/17 01:16:58;;;;;;;7.20;5.50;;;19.50;91.00;;;;;;6202757;28;20137;-77
2021/06/17 01:20:08;;;;;;;5.90;5.30;;;19.50;91.10;;;;;;6243834;23;20193;-76
2021/06/17 01:23:42;;;;;;;6.45;5.78;;;19.50;91.20;;;;;;6226230;28;20085;-76
2021/06/17 01:27:05;;;;;;;8.73;5.63;;;19.40;91.40;;;;;;6212512;28;20129;-76
2021/06/17 01:30:10;;;;;;;6.55;5.95;;;19.40;91.40;;;;;;6225909;28;20072;-76
2021/06/17 01:33:12;;;;;;;6.43;5.80;;;19.40;91.40;;;;;;6226408;28;20046;-76
2021/06/17 01:36:17;;;;;;;6.82;6.22;;;19.30;91.50;;;;;;6225879;28;20104;-75
2021/06/17 01:39:20;;;;;;;6.45;5.30;;;19.30;91.60;;;;;;6225151;28;20111;-76
2021/06/17 01:42:24;;;;;;;6.55;5.60;;;19.30;91.60;;;;;;6225521;28;20461;-75
2021/06/17 01:45:28;;;;;;;7.72;6.47;;;19.30;91.50;;;;;;6225987;28;20046;-75
2021/06/17 01:48:31;;;;;;;6.57;5.70;;;19.30;91.80;;;;;;6225208;28;20579;-76
2021/06/17 01:51:34;;;;;;;6.75;6.15;;;19.30;91.80;;;;;;6225284;28;20607;-76
2021/06/17 01:54:40;;;;;;;7.45;6.47;;;19.20;91.90;;;;;;6225348;28;20092;-76
2021/06/17 01:57:43;;;;;;;8.70;5.78;;;19.10;92.00;;;;;;6225568;28;20069;-76
2021/06/17 02:00:48;;;;;;;7.13;6.43;;;19.10;92.20;;;;;;6225433;28;20136;-76
2021/06/17 02:03:50;;;;;;;8.35;6.45;;;19.20;92.10;;;;;;6225164;28;20057;-76
2021/06/17 02:06:53;;;;;;;5.70;5.20;;;19.10;92.10;;;;;;6224936;28;20115;-76
2021/06/17 02:09:56;;;;;;;7.60;6.82;;;19.10;92.20;;;;;;6224563;28;20169;-76
2021/06/17 02:12:59;;;;;;;6.55;5.95;;;18.90;92.30;;;;;;6205232;28;20128;-75
2021/06/17 02:16:04;;;;;;;8.20;5.80;;;18.90;92.40;;;;;;6200401;28;20125;-75
2021/06/17 02:19:07;;;;;;;8.45;6.25;;;18.80;92.70;;;;;;6200125;28;20169;-76
2021/06/17 02:22:10;;;;;;;7.85;6.55;;;18.80;92.90;;;;;;6200084;28;20520;-76
2021/06/17 02:25:16;;;;;;;7.32;6.72;;;18.80;92.90;;;;;;6200748;28;20050;-76
2021/06/17 02:28:21;;;;;;;7.68;6.90;;;18.80;93.00;;;;;;6200142;28;20124;-76
2021/06/17 02:31:28;;;;;;;8.35;6.88;;;18.80;93.10;;;;;;6199952;28;20124;-75
2021/06/17 02:34:30;;;;;;;9.52;8.23;;;18.70;93.10;;;;;;6200260;28;20128;-75
2021/06/17 02:37:35;;;;;;;7.25;6.55;;;18.70;93.30;;;;;;6200170;28;20467;-75
2021/06/17 02:40:41;;;;;;;9.13;7.25;;;18.60;93.30;;;;;;6200222;28;20125;-77
2021/06/17 02:43:47;;;;;;;10.82;7.57;;;18.60;93.40;;;;;;6199895;28;20531;-77
2021/06/17 02:46:51;;;;;;;9.38;7.72;;;18.60;93.40;;;;;;6200679;28;20129;-75
2021/06/17 02:49:53;;;;;;;7.68;6.97;;;18.50;93.60;;;;;;6199193;28;20097;-76
2021/06/17 02:52:55;;;;;;;7.78;6.93;;;18.60;93.80;;;;;;6200867;28;20116;-76
2021/06/17 02:55:58;;;;;;;6.82;6.13;;;18.70;93.40;;;;;;6146060;28;20054;-77
2021/06/17 02:59:19;;;;;;;13.20;7.13;;;18.70;93.20;;;;;;6162470;28;20182;-76
2021/06/17 03:02:34;;;;;;;7.18;6.47;;;18.70;93.80;;;;;;6175325;28;20046;-76
2021/06/17 03:05:42;;;;;;;10.13;7.20;;;18.60;93.80;;;;;;6176084;28;20133;-75
2021/06/17 03:08:50;;;;;;;8.35;6.47;;;18.60;93.60;;;;;;6151100;29;20563;-76
2021/06/17 03:11:55;;;;;;;7.47;6.65;;;18.50;93.80;;;;;;6173237;28;20061;-76
2021/06/17 03:15:00;;;;;;;8.40;6.55;;;18.60;93.50;;;;;;6192708;28;20073;-76
2021/06/17 03:18:06;;;;;;;8.25;7.55;;;18.40;94.00;;;;;;6199161;28;20121;-76
2021/06/17 03:21:08;;;;;;;9.05;6.15;;;18.30;93.80;;;;;;6199527;28;20134;-77
2021/06/17 03:24:11;;;;;;;7.85;6.60;;;18.20;93.70;;;;;;6199414;28;20123;-76
2021/06/17 03:27:13;;;;;;;7.20;6.57;;;18.20;93.90;;;;;;6197801;28;20141;-77
2021/06/17 03:30:18;;;;;;;8.18;7.40;;;18.30;94.00;;;;;;6200918;28;20488;-78
2021/06/17 03:33:25;;;;;;;9.35;7.65;;;18.30;93.70;;;;;;6202350;28;20127;-77
2021/06/17 03:36:27;;;;;;;12.25;8.73;;;18.40;93.90;;;;;;6200014;28;20136;-77
2021/06/17 03:39:31;;;;;;;9.30;8.52;;;18.40;93.60;;;;;;6201515;28;20046;-77
2021/06/17 03:42:34;;;;;;;7.95;7.15;;;18.30;93.60;;;;;;6202913;28;20049;-78
2021/06/17 03:45:39;;;;;;;8.35;7.63;;;18.20;93.70;;;;;;6203778;28;20181;-78
2021/06/17 03:48:43;;;;;;;8.27;7.38;;;18.10;93.80;;;;;;6201084;28;20077;-77
2021/06/17 03:51:45;;;;;;;7.97;7.28;;;18.00;94.10;;;;;;6201396;28;20520;-77
2021/06/17 03:54:48;;;;;;;9.27;8.00;;;18.00;94.00;;;;;;6201812;28;20155;-78
2021/06/17 03:57:53;;;;;;;7.72;7.03;;;18.10;94.40;;;;;;6200246;28;20054;-78
2021/06/17 04:00:57;;;;;;;9.52;8.63;;;18.10;94.10;;;;;;6200860;28;20085;-77
2021/06/17 04:04:00;;;;;;;7.57;6.22;;;18.10;94.00;;;;;;6200434;28;20048;-75
2021/06/17 04:07:06;;;;;;;10.35;7.00;;;18.10;94.00;;;;;;6201452;28;20050;-76
2021/06/17 04:10:10;;;;;;;7.20;6.50;;;18.10;94.00;;;;;;6202129;28;20735;-78
2021/06/17 04:13:13;;;;;;;7.45;6.85;;;18.20;94.00;;;;;;6194255;28;20249;-74
2021/06/17 04:16:21;;;;;;;9.27;7.20;;;18.40;93.80;;;;;;6180770;28;20050;-77
2021/06/17 04:19:28;;;;;;;6.85;6.25;;;18.60;93.80;;;;;;6176028;28;20042;-77
2021/06/17 04:22:30;;;;;;;8.30;5.85;;;18.70;93.30;;;;;;6176964;28;20133;-77
2021/06/17 04:25:33;;;;;;;7.72;6.95;;;18.70;93.20;;;;;;6176604;28;20134;-79
2021/06/17 04:28:36;;;;;;;7.05;6.43;;;18.80;93.30;;;;;;6175941;28;20125;-75
2021/06/17 04:31:38;;;;;;;10.93;6.63;;;19.00;93.10;;;;;;6176764;28;20525;-77
2021/06/17 04:34:43;;;;;;;7.90;5.72;;;19.20;92.70;;;;;;6177210;28;20054;-77
2021/06/17 04:37:46;;;;;;;6.53;5.97;;;19.40;92.40;;;;;;6197711;28;20105;-76
2021/06/17 04:40:49;;;;;;;6.32;5.82;;;19.70;92.10;;;;;;6198149;28;20127;-76
2021/06/17 04:43:51;;;;;;;11.77;6.20;;;20.00;91.50;;;;;;6197352;28;20081;-76
2021/06/17 04:46:54;;;;;;;6.82;5.15;;;20.40;90.90;;;;;;6197464;28;20042;-76
2021/06/17 04:49:57;;;;;;;6.03;5.43;;;20.80;90.30;;;;;;6197100;28;20523;-76
2021/06/17 04:53:17;;;;;;;6.10;5.47;;;21.00;89.80;;;;;;6198020;28;20055;-77
2021/06/17 04:56:19;;;;;;;9.00;4.60;;;21.20;88.80;;;;;;6197746;28;20620;-76
2021/06/17 04:59:22;;;;;;;6.90;5.03;;;21.60;88.30;;;;;;6197354;28;20080;-77
2021/06/17 05:02:23;;;;;;;7.38;5.70;;;21.90;87.90;;;;;;6197681;28;20197;-77
2021/06/17 05:05:27;;;;;;;7.47;5.38;;;22.20;86.60;;;;;;6197562;28;20141;-76
2021/06/17 05:11:49;;;;;;;10.90;6.22;;;22.60;84.30;;;;;;6196602;28;20392;-76
2021/06/17 05:14:51;;;;;;;9.48;6.10;;;22.90;83.70;;;;;;6186281;28;20467;-77
2021/06/17 05:17:53;;;;;;;12.13;5.78;;;23.10;82.90;;;;;;6195970;28;20500;-76
2021/06/17 05:20:57;;;;;;;8.40;7.05;;;23.40;81.80;;;;;;6197147;28;20142;-77
2021/06/17 05:24:01;;;;;;;8.68;5.57;;;23.60;80.80;;;;;;6199343;28;20130;-77
2021/06/17 05:27:03;;;;;;;7.18;6.38;;;23.80;80.10;;;;;;6201107;28;20043;-77
2021/06/17 05:30:07;;;;;;;7.53;6.22;;;24.10;78.10;;;;;;6198555;28;20133;-78
2021/06/17 05:33:09;;;;;;;6.95;5.10;;;24.30;77.50;;;;;;6199292;28;20051;-77
2021/06/17 05:36:12;;;;;;;7.25;5.38;;;24.50;77.90;;;;;;6200094;28;20536;-78
2021/06/17 05:39:14;;;;;;;7.10;6.20;;;24.70;76.00;;;;;;6199799;28;20527;-77
2021/06/17 05:42:16;;;;;;;6.60;5.93;;;24.90;75.50;;;;;;6199891;28;20082;-78
2021/06/17 05:45:17;;;;;;;6.78;6.18;;;25.00;74.80;;;;;;6199425;28;20556;-77
2021/06/17 05:48:19;;;;;;;9.95;5.32;;;25.20;73.20;;;;;;6198506;28;20129;-78
2021/06/17 05:51:22;;;;;;;8.73;5.32;;;25.40;69.90;;;;;;6199479;28;20074;-78
2021/06/17 05:54:24;;;;;;;12.20;5.75;;;25.50;69.20;;;;;;6204648;28;20185;-78
2021/06/17 05:57:26;;;;;;;14.10;5.70;;;25.70;68.20;;;;;;6205251;28;20050;-78
2021/06/17 06:00:28;;;;;;;10.40;5.38;;;25.90;68.10;;;;;;6203638;28;20050;-77
2021/06/17 06:03:32;;;;;;;7.32;5.15;;;26.00;66.60;;;;;;6199533;28;20105;-78
2021/06/17 06:06:35;;;;;;;8.40;5.72;;;26.20;65.70;;;;;;6212791;28;20042;-78
2021/06/17 06:09:37;;;;;;;10.15;6.15;;;26.30;65.10;;;;;;6213246;28;20156;-76
2021/06/17 06:12:39;;;;;;;14.80;6.20;;;26.40;66.20;;;;;;6200216;28;20528;-78
2021/06/17 06:15:41;;;;;;;13.25;7.22;;;26.60;66.80;;;;;;6182134;28;20046;-77
2021/06/17 06:18:43;;;;;;;12.60;5.38;;;26.70;65.20;;;;;;6201471;28;20627;-77
2021/06/17 06:21:46;;;;;;;6.55;5.50;;;26.80;65.20;;;;;;6208383;28;20088;-78
2021/06/17 06:24:49;;;;;;;6.03;4.95;;;26.80;63.60;;;;;;6228759;28;20396;-77
2021/06/17 06:27:51;;;;;;;8.23;4.80;;;26.90;63.10;;;;;;6228792;28;20057;-77
2021/06/17 06:30:53;;;;;;;9.98;5.80;;;27.00;62.80;;;;;;6227880;28;20593;-78
2021/06/17 06:33:55;;;;;;;9.38;4.93;;;27.00;63.30;;;;;;6195397;28;20527;-77
2021/06/17 06:36:58;;;;;;;6.13;5.53;;;27.00;62.50;;;;;;6179170;28;20078;-77
2021/06/17 06:40:00;;;;;;;7.03;5.90;;;27.00;62.70;;;;;;6208226;28;20177;-77
2021/06/17 06:43:02;;;;;;;8.02;4.40;;;27.10;62.20;;;;;;6227570;28;20041;-77
2021/06/17 06:46:04;;;;;;;9.27;4.78;;;27.20;62.20;;;;;;6227556;28;20495;-77
2021/06/17 06:49:06;;;;;;;4.78;4.38;;;27.30;62.60;;;;;;6227718;28;20100;-77
2021/06/17 06:52:09;;;;;;;5.20;4.57;;;27.40;61.80;;;;;;6227860;28;20050;-77
2021/06/17 06:55:13;;;;;;;19.05;4.82;;;27.50;61.90;;;;;;6226926;28;20128;-77
2021/06/17 06:58:15;;;;;;;9.45;4.68;;;27.70;61.80;;;;;;6227648;28;20549;-78
2021/06/17 07:01:17;;;;;;;8.10;4.45;;;27.70;60.90;;;;;;6227293;28;20662;-77
2021/06/17 07:04:19;;;;;;;5.55;4.55;;;27.80;61.10;;;;;;6223253;28;20042;-78
2021/06/17 07:07:22;;;;;;;8.70;4.68;;;27.80;61.60;;;;;;6227506;28;20128;-77
2021/06/17 07:10:24;;;;;;;15.40;5.18;;;27.90;59.90;;;;;;6226329;28;20128;-77
2021/06/17 07:13:28;;;;;;;6.43;5.40;;;27.70;61.50;;;;;;6218793;28;20085;-77
2021/06/17 07:16:30;;;;;;;9.65;3.92;;;27.70;61.10;;;;;;6187859;28;20049;-77
2021/06/17 07:19:32;;;;;;;6.18;5.35;;;27.70;60.10;;;;;;6213809;23;20078;-78
2021/06/17 07:22:35;;;;;;;6.07;4.45;;;27.80;59.10;;;;;;6197234;28;20133;-79
2021/06/17 07:25:37;;;;;;;4.32;3.92;;;27.80;59.10;;;;;;6181745;28;20066;-78
2021/06/17 07:28:39;;;;;;;6.90;4.72;;;27.90;59.40;;;;;;6199409;28;20130;-79
2021/06/17 07:31:41;;;;;;;5.75;4.95;;;28.00;58.20;;;;;;6163408;28;20102;-78
2021/06/17 07:34:44;;;;;;;4.75;4.35;;;28.10;57.50;;;;;;6155509;28;20067;-78
2021/06/17 07:37:48;;;;;;;7.18;3.92;;;28.20;57.50;;;;;;6163291;28;20047;-77
2021/06/17 07:40:50;;;;;;;9.27;5.28;;;28.50;57.00;;;;;;6193979;28;20105;-75
2021/06/17 07:43:51;;;;;;;4.97;4.32;;;28.70;56.80;;;;;;6177600;28;20043;-78
2021/06/17 07:46:53;;;;;;;5.13;4.72;;;28.80;55.30;;;;;;6181521;28;20051;-77
2021/06/17 07:49:55;;;;;;;5.45;4.40;;;28.90;56.00;;;;;;6191069;28;20109;-76
2021/06/17 07:52:58;;;;;;;7.55;4.70;;;29.00;55.00;;;;;;6178492;28;20102;-77
2021/06/17 07:56:00;;;;;;;6.78;4.55;;;29.10;55.10;;;;;;6175392;28;20201;-77
2021/06/17 07:59:02;;;;;;;7.38;4.30;;;29.30;55.40;;;;;;6164751;28;20178;-77
2021/06/17 08:02:05;;;;;;;4.47;4.00;;;29.30;54.10;;;;;;6151844;29;20473;-76
2021/06/17 08:05:08;;;;;;;4.15;3.60;;;29.20;54.30;;;;;;6154060;29;20171;-78
2021/06/17 08:08:11;;;;;;;20.05;4.57;;;29.30;55.00;;;;;;6173873;28;20075;-77
2021/06/17 08:11:13;;;;;;;11.05;6.35;;;29.60;53.20;;;;;;6162136;28;20194;-76
2021/06/17 08:14:18;;;;;;;12.77;4.43;;;29.80;51.40;;;;;;6157868;28;20046;-78
2021/06/17 08:17:20;;;;;;;9.60;5.90;;;29.90;52.30;;;;;;6169465;28;20066;-77
2021/06/17 08:20:22;;;;;;;7.25;4.30;;;30.00;52.30;;;;;;6177261;28;20126;-78
2021/06/17 08:23:25;;;;;;;6.60;4.63;;;30.10;51.80;;;;;;6178318;28;20062;-78
2021/06/17 08:26:27;;;;;;;8.73;4.35;;;30.10;52.10;;;;;;6178161;28;20042;-77
2021/06/17 08:29:29;;;;;;;5.47;4.35;;;;;;;;;;6173288;28;20042;-77
2021/06/17 08:32:31;;;;;;;10.45;3.97;;;30.60;50.10;;;;;;6173814;28;20047;-79
2021/06/17 08:35:33;;;;;;;8.82;5.20;;;30.80;49.80;;;;;;6173833;28;20105;-76
2021/06/17 08:38:37;;;;;;;5.03;3.63;;;30.80;50.00;;;;;;6173347;28;20420;-77
2021/06/17 08:41:38;;;;;;;8.10;4.25;;;31.00;50.00;;;;;;6174242;28;20497;-78
2021/06/17 08:44:41;;;;;;;5.82;4.45;;;31.00;49.20;;;;;;6175114;28;20141;-77
2021/06/17 08:47:44;;;;;;;4.20;3.83;;;31.20;49.30;;;;;;6175595;28;20046;-78
2021/06/17 08:50:45;;;;;;;6.43;5.10;;;31.40;48.60;;;;;;6175384;28;20174;-78
2021/06/17 08:53:51;;;;;;;4.70;4.30;;;31.50;48.50;;;;;;6175881;28;20134;-78
2021/06/17 08:56:54;;;;;;;6.85;4.47;;;31.60;48.10;;;;;;6176102;28;20435;-78
2021/06/17 08:59:56;;;;;;;8.82;4.18;;;31.60;47.20;;;;;;6176506;28;20406;-78
2021/06/17 09:03:00;;;;;;;5.72;4.43;;;31.70;47.60;;;;;;6174886;28;20089;-77
2021/06/17 09:06:02;;;;;;;9.15;4.43;;;31.80;47.70;;;;;;6173434;28;20501;-78
2021/06/17 09:09:05;;;;;;;8.73;4.28;;;31.90;46.70;;;;;;6174517;28;20058;-77
2021/06/17 09:12:09;;;;;;;9.75;4.65;;;31.90;47.30;;;;;;6174180;28;20121;-77
2021/06/17 09:15:12;;;;;;;4.65;4.22;;;31.80;46.30;;;;;;6173238;28;20042;-77
2021/06/17 09:18:24;;;;;;;5.05;4.55;;;31.80;46.70;;;;;;6173256;28;20129;-77
2021/06/17 09:21:27;;;;;;;5.13;4.35;;;31.90;45.80;;;;;;6149091;29;20055;-77
2021/06/17 09:24:34;;;;;;;4.78;4.15;;;31.70;46.70;;;;;;6150505;28;20501;-77
2021/06/17 09:27:39;;;;;;;9.38;4.88;;;31.80;46.60;;;;;;6152426;28;20044;-77
2021/06/17 09:30:41;;;;;;;7.75;4.55;;;31.90;45.60;;;;;;6156054;28;20070;-77
2021/06/17 09:33:44;;;;;;;5.63;4.80;;;32.10;46.70;;;;;;6155328;29;20134;-78
2021/06/17 09:36:46;;;;;;;8.52;4.63;;;32.40;46.90;;;;;;6154537;29;20051;-76
2021/06/17 09:39:50;;;;;;;5.63;4.13;;;32.50;44.50;;;;;;6154092;28;20117;-78
2021/06/17 09:42:52;;;;;;;8.18;3.42;;;32.30;43.40;;;;;;6154272;29;20175;-77
2021/06/17 09:46:00;;;;;;;4.68;4.22;;;32.40;44.60;;;;;;6153437;29;20051;-76
2021/06/17 09:49:07;;;;;;;7.93;4.43;;;32.50;43.60;;;;;;6152954;28;20059;-77
2021/06/17 09:52:11;;;;;;;4.90;4.50;;;32.60;44.40;;;;;;6153186;29;20047;-77
2021/06/17 09:55:14;;;;;;;17.63;4.45;;;32.70;45.00;;;;;;6152952;29;20075;-77
2021/06/17 09:58:41;;;;;;;4.10;3.80;;;32.80;44.50;;;;;;6168905;28;20043;-77
2021/06/17 10:01:45;;;;;;;9.35;4.25;;;33.20;43.40;;;;;;6176601;28;20055;-77
2021/06/17 10:04:47;;;;;;;5.75;4.55;;;33.50;42.60;;;;;;6177137;28;20053;-77
2021/06/17 10:07:50;;;;;;;13.40;5.95;;;33.60;41.50;;;;;;6176924;28;20078;-76
2021/06/17 10:10:54;;;;;;;4.68;4.35;;;33.60;41.80;;;;;;6176311;28;20047;-77
2021/06/17 10:13:56;;;;;;;8.38;5.38;;;33.60;43.00;;;;;;6163801;28;20051;-77
2021/06/17 10:16:59;;;;;;;8.88;4.80;;;33.80;42.50;;;;;;6153071;29;20137;-77
2021/06/17 10:20:03;;;;;;;9.95;5.18;;;34.00;42.00;;;;;;6163462;28;20047;-77
2021/06/17 10:23:06;;;;;;;9.38;5.43;;;34.00;41.40;;;;;;6152647;28;20130;-77
2021/06/17 10:26:09;;;;;;;7.32;6.40;;;33.90;41.60;;;;;;6152626;29;20043;-77
2021/06/17 10:29:23;;;;;;;7.03;5.55;;;33.90;42.70;;;;;;6152527;28;20070;-77
2021/06/17 10:32:34;;;;;;;6.55;5.45;;;33.90;42.30;;;;;;6152287;28;20162;-77
2021/06/17 10:35:36;;;;;;;8.52;5.75;;;34.00;42.90;;;;;;6152658;29;20528;-77
2021/06/17 10:39:14;;;;;;;8.88;5.32;;;34.30;42.30;;;;;;6151772;28;20172;-77
2021/06/17 10:42:30;;;;;;;5.63;5.13;;;34.60;42.50;;;;;;6174083;28;20047;-77
2021/06/17 10:45:39;;;;;;;7.65;6.05;;;35.00;42.50;;;;;;6176294;28;20524;-77
2021/06/17 10:48:43;;;;;;;5.28;4.88;;;35.40;42.20;;;;;;6175874;28;20133;-76
2021/06/17 10:52:22;;;;;;;11.52;6.10;;;35.60;41.10;;;;;;6176068;28;20050;-77
2021/06/17 10:55:25;;;;;;;8.52;5.68;;;35.80;40.60;;;;;;6175505;28;20122;-77
2021/06/17 10:58:56;;;;;;;6.25;5.63;;;36.00;41.10;;;;;;6175435;28;20544;-77
2021/06/17 11:02:09;;;;;;;6.45;5.65;;;36.20;40.80;;;;;;6152512;28;20061;-77
2021/06/17 11:05:53;;;;;;;9.25;5.18;;;36.30;40.90;;;;;;6175624;28;20138;-77
2021/06/17 11:08:55;;;;;;;15.23;6.22;;;36.40;40.60;;;;;;6175352;28;20148;-77
2021/06/17 11:11:57;;;;;;;7.85;5.63;;;36.50;39.60;;;;;;6175332;28;20129;-77
2021/06/17 11:15:01;;;;;;;9.93;6.22;;;36.60;40.30;;;;;;6175851;28;20129;-77
2021/06/17 11:18:03;;;;;;;7.78;4.90;;;36.80;40.50;;;;;;6175697;28;20051;-77
2021/06/17 11:21:05;;;;;;;9.00;5.60;;;36.90;39.40;;;;;;6152001;28;20082;-77
2021/06/17 11:24:32;;;;;;;6.18;5.57;;;36.90;40.10;;;;;;6151001;28;20466;-78
2021/06/17 11:27:34;;;;;;;5.68;5.20;;;37.20;38.90;;;;;;6152031;28;20058;-78
2021/06/17 11:31:10;;;;;;;9.10;5.65;;;37.30;39.20;;;;;;6165531;28;20042;-76
2021/06/17 11:34:13;;;;;;;10.15;6.38;;;37.40;39.30;;;;;;6126414;29;20127;-78
2021/06/17 11:37:16;;;;;;;11.48;5.97;;;37.40;39.30;;;;;;6126440;29;20059;-78
2021/06/17 11:40:18;;;;;;;8.15;5.50;;;37.30;40.10;;;;;;6157779;28;20134;-77
2021/06/17 11:43:22;;;;;;;5.93;5.32;;;37.10;40.90;;;;;;6165591;28;20129;-78
2021/06/17 11:46:31;;;;;;;14.82;5.60;;;37.20;41.00;;;;;;6173959;28;20449;-77
2021/06/17 11:49:35;;;;;;;10.05;5.82;;;37.10;41.30;;;;;;6174600;28;20146;-76
2021/06/17 11:52:41;;;;;;;7.88;5.57;;;36.90;40.90;;;;;;6174557;28;20069;-75
2021/06/17 11:55:45;;;;;;;;;;;36.80;41.10;;;;;;6174018;28;20039;-75
2021/06/17 11:58:47;;;;;;;9.57;5.43;;;36.60;41.40;;;;;;6173607;28;20366;-76
2021/06/17 12:02:23;;;;;;;6.65;5.95;;;36.60;41.10;;;;;;6174100;28;20047;-76
2021/06/17 12:05:27;;;;;;;7.75;4.85;;;36.70;41.50;;;;;;6174809;28;20050;-77
2021/06/17 12:08:29;;;;;;;5.57;5.15;;;36.80;39.10;;;;;;6174435;28;20047;-77
2021/06/17 12:11:31;;;;;;;6.43;4.90;;;37.00;38.90;;;;;;6174309;28;20177;-76
2021/06/17 12:14:41;;;;;;;5.88;5.32;;;37.10;38.50;;;;;;6174352;28;20035;-77
2021/06/17 12:17:46;;;;;;;8.55;6.05;;;37.30;38.50;;;;;;6174391;28;20497;-76
2021/06/17 12:20:49;;;;;;;5.90;4.72;;;37.40;38.50;;;;;;6171571;28;20134;-77
2021/06/17 12:23:51;;;;;;;6.72;6.13;;;37.50;38.50;;;;;;6171295;28;20070;-76
2021/06/17 12:26:53;;;;;;;12.55;5.25;;;37.70;38.00;;;;;;6173651;28;20043;-77
2021/06/17 12:29:55;;;;;;;7.18;5.90;;;37.80;37.30;;;;;;6173127;28;20878;-77
2021/06/17 12:33:08;;;;;;;6.70;5.90;;;37.90;37.50;;;;;;6174277;28;20051;-75
2021/06/17 12:36:16;;;;;;;5.40;4.82;;;38.00;37.10;;;;;;6175340;28;20126;-77
2021/06/17 12:39:19;;;;;;;7.88;6.28;;;37.90;37.40;;;;;;6173601;28;20114;-76
2021/06/17 12:42:21;;;;;;;6.13;5.53;;;37.90;37.50;;;;;;6174965;28;20055;-77
2021/06/17 12:45:23;;;;;;;6.15;5.60;;;37.80;37.40;;;;;;6174069;28;20054;-77
2021/06/17 12:48:58;;;;;;;8.23;4.57;;;37.80;37.20;;;;;;6173712;28;20053;-77
2021/06/17 12:52:02;;;;;;;9.43;6.13;;;37.70;37.80;;;;;;6174672;28;20133;-76
2021/06/17 12:55:06;;;;;;;6.07;5.47;;;37.50;37.10;;;;;;6173537;28;20412;-77
2021/06/17 12:58:12;;;;;;;5.95;5.18;;;37.40;37.40;;;;;;6173760;28;20181;-77
2021/06/17 13:01:14;;;;;;;9.48;5.78;;;37.40;37.40;;;;;;6173497;28;20524;-75
2021/06/17 13:04:18;;;;;;;7.18;5.95;;;37.40;38.00;;;;;;6178179;28;20403;-77
2021/06/17 13:07:21;;;;;;;5.82;5.03;;;37.40;38.10;;;;;;6178300;28;20521;-77
2021/06/17 13:10:23;;;;;;;5.53;5.05;;;37.30;38.20;;;;;;6178554;28;20046;-77
2021/06/17 13:13:27;;;;;;;6.75;5.10;;;37.30;37.80;;;;;;6181462;28;20055;-76
2021/06/17 13:16:31;;;;;;;7.93;6.10;;;37.20;37.80;;;;;;6195811;28;20134;-76
2021/06/17 13:19:34;;;;;;;5.72;4.57;;;37.20;37.40;;;;;;6194092;28;20125;-76
2021/06/17 13:22:54;;;;;;;6.32;5.50;;;37.20;37.80;;;;;;6194089;28;20042;-77
2021/06/17 13:25:59;;;;;;;7.45;4.88;;;37.30;37.90;;;;;;6172111;28;20505;-77
2021/06/17 13:29:03;;;;;;;5.78;5.22;;;37.50;37.70;;;;;;6164682;28;20059;-77
2021/06/17 13:32:05;;;;;;;9.07;5.30;;;37.70;37.30;;;;;;6156960;28;20126;-78
2021/06/17 13:35:10;;;;;;;8.65;6.30;;;37.80;36.90;;;;;;6157102;28;20063;-78
2021/06/17 13:38:12;;;;;;;8.65;5.82;;;37.90;36.90;;;;;;6156105;28;20491;-78
2021/06/17 13:41:14;;;;;;;5.72;5.28;;;37.80;37.40;;;;;;6155001;29;20444;-77
2021/06/17 13:44:16;;;;;;;15.07;5.90;;;38.00;37.00;;;;;;6155524;28;20050;-76
2021/06/17 13:47:18;;;;;;;5.65;5.00;;;38.10;36.80;;;;;;6154227;29;20074;-77
2021/06/17 13:50:21;;;;;;;5.75;4.93;;;38.30;36.50;;;;;;6154085;28;20179;-75
2021/06/17 13:53:23;;;;;;;6.82;4.97;;;38.30;36.20;;;;;;6154231;28;20051;-76
2021/06/17 13:56:25;;;;;;;8.68;5.50;;;38.30;36.20;;;;;;6153736;28;20079;-76
2021/06/17 13:59:27;;;;;;;5.90;5.40;;;38.20;36.30;;;;;;6153409;28;20070;-76
2021/06/17 14:02:28;;;;;;;5.85;5.25;;;38.10;36.70;;;;;;6153618;29;20138;-76
2021/06/17 14:05:32;;;;;;;6.43;5.90;;;38.00;36.30;;;;;;6154278;29;20176;-76
2021/06/17 14:08:34;;;;;;;8.95;4.82;;;38.00;36.70;;;;;;6152983;28;20178;-75
2021/06/17 14:11:36;;;;;;;6.55;4.75;;;38.00;37.70;;;;;;6153471;29;20051;-76
2021/06/17 14:14:37;;;;;;;7.10;5.88;;;38.10;36.60;;;;;;6170931;28;20121;-76
2021/06/17 14:17:39;;;;;;;8.45;6.38;;;38.20;36.90;;;;;;6177391;28;20497;-76
2021/06/17 14:20:43;;;;;;;5.70;4.93;;;38.30;36.80;;;;;;6177262;28;20077;-75
2021/06/17 14:23:44;;;;;;;6.05;5.47;;;38.40;37.60;;;;;;6176459;28;20464;-76
2021/06/17 14:26:47;;;;;;;5.93;5.10;;;38.30;36.40;;;;;;6176859;28;20121;-76
2021/06/17 14:29:49;;;;;;;14.35;4.97;;;38.30;36.00;;;;;;6176378;28;20056;-76
2021/06/17 14:32:51;;;;;;;4.63;4.22;;;38.40;35.60;;;;;;6177537;28;20512;-75
2021/06/17 14:35:54;;;;;;;7.00;4.85;;;38.30;36.30;;;;;;6177379;28;20583;-76
2021/06/17 14:38:56;;;;;;;6.03;5.53;;;38.40;36.60;;;;;;6176805;28;20177;-77
2021/06/17 14:41:58;;;;;;;9.07;5.43;;;38.40;35.60;;;;;;6176517;28;20545;-75
2021/06/17 14:45:00;;;;;;;6.50;5.03;;;38.30;35.60;;;;;;6177217;28;20189;-77
2021/06/17 14:48:02;;;;;;;9.05;5.32;;;38.20;36.10;;;;;;6176272;28;20054;-76
2021/06/17 14:51:05;;;;;;;4.95;4.50;;;38.20;37.40;;;;;;6176381;28;20050;-76
2021/06/17 14:54:08;;;;;;;7.07;5.03;;;38.20;36.70;;;;;;6176513;28;20094;-76
2021/06/17 14:57:11;;;;;;;5.88;5.13;;;38.00;36.20;;;;;;6176854;28;20093;-76
2021/06/17 15:00:13;;;;;;;7.13;5.35;;;37.80;37.40;;;;;;6176077;28;20549;-77
2021/06/17 15:03:15;;;;;;;5.32;4.82;;;37.80;37.10;;;;;;6176444;28;20047;-77
2021/06/17 15:06:18;;;;;;;5.55;4.93;;;37.90;37.00;;;;;;6176672;28;20122;-76
2021/06/17 15:09:20;;;;;;;6.20;5.70;;;38.00;36.70;;;;;;6176287;28;20460;-75
2021/06/17 15:12:22;;;;;;;8.15;5.70;;;37.90;36.50;;;;;;6176513;28;20557;-76
2021/06/17 15:15:24;;;;;;;7.82;5.28;;;37.90;36.50;;;;;;6176069;28;20071;-76
2021/06/17 15:18:26;;;;;;;6.57;6.07;;;37.90;36.50;;;;;;6176017;28;20404;-75
2021/06/17 15:21:29;;;;;;;8.68;5.22;;;37.90;36.90;;;;;;6176187;28;20051;-76
2021/06/17 15:24:31;;;;;;;12.00;6.10;;;37.80;37.10;;;;;;6172467;28;20177;-76
2021/06/17 15:27:33;;;;;;;7.07;5.35;;;37.70;38.70;;;;;;6174231;28;20134;-77
2021/06/17 15:30:36;;;;;;;10.35;5.72;;;37.50;37.80;;;;;;6175499;28;20125;-76
2021/06/17 15:33:38;;;;;;;7.28;4.88;;;37.30;38.10;;;;;;6137668;28;20512;-76
2021/06/17 15:36:41;;;;;;;6.20;5.60;;;37.10;38.00;;;;;;6175905;28;20126;-76
2021/06/17 15:39:43;;;;;;;11.05;5.15;;;36.90;38.70;;;;;;6175592;28;20057;-77
2021/06/17 15:42:44;;;;;;;7.78;5.45;;;36.70;39.60;;;;;;6175365;28;20054;-77
2021/06/17 15:45:46;;;;;;;7.65;5.20;;;36.60;39.60;;;;;;6175768;28;20094;-76
2021/06/17 15:48:49;;;;;;;5.68;4.72;;;36.40;40.80;;;;;;6175719;28;20080;-76
2021/06/17 15:51:52;;;;;;;8.73;6.22;;;36.10;41.00;;;;;;6176370;28;20086;-76
2021/06/17 15:54:54;;;;;;;7.07;6.40;;;35.90;40.50;;;;;;6175672;28;20051;-76
2021/06/17 15:57:57;;;;;;;10.20;5.65;;;35.70;40.40;;;;;;6174985;28;20569;-76
2021/06/17 16:00:59;;;;;;;9.30;6.50;;;35.50;41.50;;;;;;6174916;28;20051;-78